Time;durP1;ratioP1;P1;durP2;ratioP2;P2;SDS_P1;SDS_P2;PMS_P1;PMS_P2;Temp;Humidity;BMP_temperature;BMP_pressure;BME280_temperature;BME280_humidity;BME280_pressure;Samples;Min_cycle;Max_cycle;Signal;HPM_P1;HPM_P2
2021/01/11 00:00:07;;;;;;;78.63;50.27;;;;;;;;;;2084566;28;20188;-63
2021/01/11 00:01:08;;;;;;;75.00;46.27;;;;;;;;;;2076913;28;20184;-62
2021/01/11 00:02:12;;;;;;;80.13;46.67;;;;;;;;;;2085128;28;20176;-64
2021/01/11 00:03:12;;;;;;;81.37;50.67;;;;;;;;;;2093812;28;20168;-59
2021/01/11 00:04:13;;;;;;;80.50;50.07;;;;;;;;;;2093683;28;20455;-59
2021/01/11 00:05:14;;;;;;;81.20;48.83;;;;;;;;;;2084886;28;20720;-60
2021/01/11 00:06:18;;;;;;;78.33;49.67;;;;;;;;;;2084795;28;20180;-61
2021/01/11 00:07:18;;;;;;;78.63;46.00;;;;;;;;;;2079569;28;20779;-62
2021/01/11 00:08:19;;;;;;;76.03;44.53;;;;;;;;;;2079262;28;20207;-61
2021/01/11 00:09:28;;;;;;;76.67;46.90;;;;;;;;;;2078720;28;20273;-60
2021/01/11 00:10:28;;;;;;;76.47;48.17;;;;;;;;;;2084706;28;20172;-61
2021/01/11 00:11:29;;;;;;;81.03;50.83;;;;;;;;;;2084718;28;20172;-61
2021/01/11 00:12:34;;;;;;;77.80;49.10;;;;;;;;;;2090634;28;20640;-61
2021/01/11 00:13:34;;;;;;;81.07;50.83;;;;;;;;;;2083804;28;20195;-62
2021/01/11 00:14:34;;;;;;;75.13;49.80;;;;;;;;;;2083023;28;20254;-61
2021/01/11 00:15:35;;;;;;;82.33;50.27;;;;;;;;;;2091755;28;20179;-60
2021/01/11 00:16:35;;;;;;;79.60;48.20;;;;;;;;;;2092071;28;20190;-58
2021/01/11 00:17:35;;;;;;;74.40;46.53;;;;;;;;;;2091903;28;20208;-60
2021/01/11 00:18:37;;;;;;;76.17;48.50;;;;;;;;;;2091535;28;20172;-59
2021/01/11 00:19:37;;;;;;;76.17;48.33;;;;;;;;;;2091612;28;20223;-60
2021/01/11 00:20:37;;;;;;;86.23;51.60;;;;;;;;;;2077914;28;20417;-58
2021/01/11 00:21:38;;;;;;;76.87;47.90;;;;;;;;;;2075015;28;20360;-58
2021/01/11 00:22:41;;;;;;;79.83;49.83;;;;;;;;;;2083247;28;20272;-57
2021/01/11 00:23:42;;;;;;;78.27;48.77;;;;;;;;;;2077739;28;20585;-58
2021/01/11 00:24:42;;;;;;;78.83;49.17;;;;;;;;;;2082018;28;20180;-58
2021/01/11 00:25:42;;;;;;;80.30;50.03;;;;;;;;;;2090119;28;20206;-58
2021/01/11 00:26:49;;;;;;;76.97;49.17;;;;;;;;;;2083339;28;20176;-57
2021/01/11 00:27:50;;;;;;;79.30;49.10;;;;;;;;;;2084316;28;20168;-58
2021/01/11 00:28:50;;;;;;;69.73;48.27;;;;;;;;;;2092492;28;20615;-59
2021/01/11 00:29:50;;;;;;;75.83;48.77;;;;;;;;;;2091967;28;20170;-57
2021/01/11 00:30:50;;;;;;;71.93;47.10;;;;;;;;;;2080148;28;20192;-59
2021/01/11 00:31:51;;;;;;;71.77;47.67;;;;;;;;;;2081728;28;20595;-56
2021/01/11 00:32:51;;;;;;;74.30;48.47;;;;;;;;;;2090676;28;20204;-58
2021/01/11 00:33:52;;;;;;;72.90;48.93;;;;;;;;;;2083247;28;20184;-57
2021/01/11 00:34:52;;;;;;;69.07;46.73;;;;;;;;;;2083348;28;20239;-57
2021/01/11 00:35:53;;;;;;;77.37;46.50;;;;;;;;;;2091305;28;21034;-57
2021/01/11 00:36:58;;;;;;;71.03;45.77;;;;;;;;;;2091644;28;20214;-55
2021/01/11 00:37:58;;;;;;;71.33;47.47;;;;;;;;;;2073810;28;20286;-57
2021/01/11 00:38:58;;;;;;;76.27;47.63;;;;;;;;;;2075217;28;20489;-56
2021/01/11 00:39:58;;;;;;;73.10;47.70;;;;;;;;;;2089469;28;20631;-57
2021/01/11 00:40:59;;;;;;;73.97;45.80;;;;;;;;;;2088831;28;20183;-56
2021/01/11 00:42:00;;;;;;;71.53;46.77;;;;;;;;;;2083015;28;20173;-60
2021/01/11 00:43:00;;;;;;;73.70;48.57;;;;;;;;;;2082958;28;20184;-62
2021/01/11 00:44:01;;;;;;;75.50;49.33;;;;;;;;;;2091456;28;20710;-57
2021/01/11 00:45:02;;;;;;;64.70;45.17;;;;;;;;;;2088076;28;20291;-58
2021/01/11 00:46:03;;;;;;;68.73;46.80;;;;;;;;;;2079309;28;20191;-57
2021/01/11 00:47:03;;;;;;;71.73;47.10;;;;;;;;;;2074014;28;20201;-56
2021/01/11 00:48:04;;;;;;;72.57;47.10;;;;;;;;;;2082574;28;20180;-56
2021/01/11 00:49:04;;;;;;;70.43;47.40;;;;;;;;;;2074641;28;20263;-57
2021/01/11 00:50:05;;;;;;;70.77;45.40;;;;;;;;;;2082933;28;20167;-57
2021/01/11 00:51:06;;;;;;;70.60;46.20;;;;;;;;;;2091074;28;20176;-57
2021/01/11 00:52:07;;;;;;;64.40;44.30;;;;;;;;;;2074010;28;20257;-57
2021/01/11 00:53:07;;;;;;;66.27;45.00;;;;;;;;;;2065771;28;20180;-59
2021/01/11 00:54:08;;;;;;;66.73;43.87;;;;;;;;;;2082939;28;20243;-58
2021/01/11 00:55:09;;;;;;;62.03;40.97;;;;;;;;;;2082268;28;20596;-58
2021/01/11 00:56:10;;;;;;;65.90;44.47;;;;;;;;;;2071897;28;20450;-58
2021/01/11 00:57:11;;;;;;;64.87;44.03;;;;;;;;;;2085208;23;20216;-63
2021/01/11 00:58:21;;;;;;;71.70;46.47;;;;;;;;;;2075298;28;20187;-65
2021/01/11 00:59:26;;;;;;;77.57;48.87;;;;;;;;;;2083221;28;20172;-65
2021/01/11 01:00:28;;;;;;;66.03;44.67;;;;;;;;;;2081679;28;20398;-62
2021/01/11 01:01:55;;;;;;;69.17;46.30;;;;;;;;;;2082381;28;20194;-64
2021/01/11 01:02:59;;;;;;;66.80;44.70;;;;;;;;;;2090595;28;20209;-66
2021/01/11 01:03:59;;;;;;;70.20;46.17;;;;;;;;;;2084375;28;20549;-67
2021/01/11 01:05:00;;;;;;;69.07;44.57;;;;;;;;;;2097767;28;20635;-66
2021/01/11 01:06:00;;;;;;;67.97;47.00;;;;;;;;;;2097345;28;20175;-64
2021/01/11 01:07:02;;;;;;;67.70;45.47;;;;;;;;;;2088379;28;20211;-63
2021/01/11 01:08:02;;;;;;;72.97;48.13;;;;;;;;;;2082030;28;20613;-65
2021/01/11 01:09:02;;;;;;;68.97;48.60;;;;;;;;;;2091027;28;20175;-64
2021/01/11 01:10:04;;;;;;;70.33;47.47;;;;;;;;;;2079296;28;20220;-65
2021/01/11 01:11:04;;;;;;;73.33;46.47;;;;;;;;;;2079811;28;20311;-66
2021/01/11 01:12:05;;;;;;;72.80;48.90;;;;;;;;;;2090605;28;20188;-64
2021/01/11 01:13:05;;;;;;;63.10;38.87;;;;;;;;;;2090784;28;20175;-66
2021/01/11 01:14:06;;;;;;;74.77;48.33;;;;;;;;;;2082552;28;20267;-66
2021/01/11 01:15:07;;;;;;;70.37;46.93;;;;;;;;;;2078620;28;20707;-62
2021/01/11 01:16:07;;;;;;;72.83;47.77;;;;;;;;;;2078953;28;20576;-62
2021/01/11 01:17:07;;;;;;;68.10;46.20;;;;;;;;;;2081556;28;20222;-62
2021/01/11 01:18:08;;;;;;;68.27;45.67;;;;;;;;;;2081823;28;20291;-65
2021/01/11 01:19:08;;;;;;;74.63;47.27;;;;;;;;;;2081960;28;20255;-67
2021/01/11 01:20:15;;;;;;;66.33;45.57;;;;;;;;;;2078127;28;20601;-64
2021/01/11 01:21:16;;;;;;;65.20;47.23;;;;;;;;;;2079250;28;20222;-65
2021/01/11 01:22:16;;;;;;;70.97;48.10;;;;;;;;;;2090255;28;20428;-64
2021/01/11 01:23:16;;;;;;;73.07;46.77;;;;;;;;;;2081376;28;20421;-67
2021/01/11 01:24:17;;;;;;;65.63;46.40;;;;;;;;;;2081988;28;20218;-67
2021/01/11 01:25:17;;;;;;;69.53;47.87;;;;;;;;;;2082389;28;20619;-61
2021/01/11 01:26:18;;;;;;;66.67;44.33;;;;;;;;;;2081942;28;20181;-62
2021/01/11 01:27:18;;;;;;;70.43;46.23;;;;;;;;;;2091801;28;20202;-66
2021/01/11 01:28:18;;;;;;;68.93;45.57;;;;;;;;;;2093501;28;20191;-67
2021/01/11 01:29:18;;;;;;;64.17;44.97;;;;;;;;;;2093615;28;20567;-67
2021/01/11 01:30:19;;;;;;;69.47;46.23;;;;;;;;;;2090774;28;20198;-66
2021/01/11 01:31:19;;;;;;;67.00;46.13;;;;;;;;;;2093164;28;20251;-66
2021/01/11 01:32:19;;;;;;;67.20;45.93;;;;;;;;;;2087122;28;20177;-67
2021/01/11 01:33:20;;;;;;;67.27;45.93;;;;;;;;;;2074560;28;20240;-65
2021/01/11 01:34:20;;;;;;;69.23;45.47;;;;;;;;;;2072118;28;20200;-64
2021/01/11 01:35:20;;;;;;;60.67;39.83;;;;;;;;;;2081511;28;20180;-63
2021/01/11 01:36:20;;;;;;;68.10;46.73;;;;;;;;;;2090817;28;20188;-62
2021/01/11 01:37:21;;;;;;;73.20;47.07;;;;;;;;;;2084921;28;20242;-64
2021/01/11 01:38:21;;;;;;;72.30;47.60;;;;;;;;;;2088201;28;20167;-65
2021/01/11 01:39:22;;;;;;;70.53;47.30;;;;;;;;;;2073782;28;20231;-62
2021/01/11 01:40:23;;;;;;;68.83;46.27;;;;;;;;;;2065704;28;20216;-61
2021/01/11 01:41:23;;;;;;;74.70;48.80;;;;;;;;;;2080874;28;20180;-63
2021/01/11 01:42:24;;;;;;;71.53;45.33;;;;;;;;;;2089712;28;20183;-65
2021/01/11 01:43:24;;;;;;;73.37;47.50;;;;;;;;;;2081699;28;20175;-65
2021/01/11 01:44:24;;;;;;;75.80;48.20;;;;;;;;;;2076385;28;20283;-64
2021/01/11 01:45:25;;;;;;;79.57;49.30;;;;;;;;;;2087716;28;20195;-66
2021/01/11 01:46:27;;;;;;;79.27;48.93;;;;;;;;;;2089856;28;20262;-64
2021/01/11 01:47:28;;;;;;;74.23;48.53;;;;;;;;;;2079490;28;20718;-64
2021/01/11 01:48:28;;;;;;;73.07;46.67;;;;;;;;;;2075585;28;20414;-65
2021/01/11 01:49:28;;;;;;;71.83;45.93;;;;;;;;;;2084074;28;20610;-65
2021/01/11 01:50:29;;;;;;;74.17;47.73;;;;;;;;;;2074013;28;20177;-63
2021/01/11 01:51:29;;;;;;;75.87;47.93;;;;;;;;;;2073346;28;20199;-63
2021/01/11 01:52:29;;;;;;;77.20;48.30;;;;;;;;;;2073566;28;20203;-65
2021/01/11 01:53:30;;;;;;;82.37;50.90;;;;;;;;;;2073754;28;20173;-65
2021/01/11 01:54:30;;;;;;;68.17;43.17;;;;;;;;;;2081752;28;20233;-66
2021/01/11 01:55:30;;;;;;;79.80;50.13;;;;;;;;;;2081528;28;21003;-65
2021/01/11 01:56:31;;;;;;;83.23;52.40;;;;;;;;;;2075142;28;20188;-64
2021/01/11 01:57:32;;;;;;;81.70;52.87;;;;;;;;;;2088730;28;20203;-62
2021/01/11 01:58:34;;;;;;;80.43;50.07;;;;;;;;;;2090943;28;20176;-63
2021/01/11 01:59:34;;;;;;;81.03;50.27;;;;;;;;;;2090737;28;20172;-64
2021/01/11 02:00:34;;;;;;;79.23;52.40;;;;;;;;;;2081732;28;20168;-63
2021/01/11 02:01:36;;;;;;;75.73;48.20;;;;;;;;;;2073394;28;20801;-65
2021/01/11 02:02:36;;;;;;;83.30;50.20;;;;;;;;;;2081693;28;20569;-65
2021/01/11 02:03:37;;;;;;;78.40;50.23;;;;;;;;;;2081765;28;20172;-65
2021/01/11 02:04:38;;;;;;;80.70;47.97;;;;;;;;;;2081998;28;20214;-63
2021/01/11 02:05:38;;;;;;;83.33;48.37;;;;;;;;;;2081339;28;20529;-66
2021/01/11 02:06:40;;;;;;;83.07;53.47;;;;;;;;;;2081097;28;20184;-63
2021/01/11 02:07:40;;;;;;;88.07;51.47;;;;;;;;;;2080801;28;20196;-66
2021/01/11 02:08:51;;;;;;;88.23;50.50;;;;;;;;;;2081030;28;20641;-60
2021/01/11 02:09:57;;;;;;;84.00;51.33;;;;;;;;;;2090231;28;20214;-64
2021/01/11 02:11:12;;;;;;;90.33;50.07;;;;;;;;;;2089948;28;20740;-63
2021/01/11 02:12:18;;;;;;;85.63;49.00;;;;;;;;;;2089654;28;20201;-61
2021/01/11 02:13:33;;;;;;;80.17;48.53;;;;;;;;;;2090036;28;20171;-65
2021/01/11 02:14:46;;;;;;;79.80;47.90;;;;;;;;;;2082136;28;20171;-65
2021/01/11 02:15:46;;;;;;;84.27;49.57;;;;;;;;;;2074597;28;20201;-66
2021/01/11 02:16:49;;;;;;;80.20;48.53;;;;;;;;;;2072610;28;20525;-65
2021/01/11 02:17:55;;;;;;;82.73;50.17;;;;;;;;;;2073893;28;20192;-64
2021/01/11 02:19:09;;;;;;;86.13;49.97;;;;;;;;;;2082158;28;20393;-64
2021/01/11 02:20:18;;;;;;;79.13;47.27;;;;;;;;;;2077634;28;20406;-65
2021/01/11 02:21:28;;;;;;;83.53;46.90;;;;;;;;;;2079581;28;20168;-65
2021/01/11 02:22:33;;;;;;;78.60;48.67;;;;;;;;;;2081267;28;20207;-63
2021/01/11 02:23:52;;;;;;;88.63;50.77;;;;;;;;;;2073841;28;20442;-62
2021/01/11 02:25:07;;;;;;;87.97;49.90;;;;;;;;;;2074955;28;20181;-63
2021/01/11 02:26:13;;;;;;;84.80;49.60;;;;;;;;;;2081534;28;20159;-64
2021/01/11 02:27:16;;;;;;;89.43;53.27;;;;;;;;;;2081766;28;20449;-62
2021/01/11 02:28:42;;;;;;;88.43;48.90;;;;;;;;;;2090980;28;20935;-62
2021/01/11 02:29:51;;;;;;;90.63;50.87;;;;;;;;;;2081919;28;20172;-67
2021/01/11 02:30:53;;;;;;;92.17;52.93;;;;;;;;;;2083079;28;20472;-66
2021/01/11 02:31:54;;;;;;;87.40;52.47;;;;;;;;;;2071907;28;20421;-66
2021/01/11 02:32:56;;;;;;;94.43;52.87;;;;;;;;;;2073197;28;20179;-64
2021/01/11 02:33:58;;;;;;;93.30;55.07;;;;;;;;;;2088448;28;20183;-63
2021/01/11 02:35:03;;;;;;;85.50;51.40;;;;;;;;;;2080284;28;21049;-64
2021/01/11 02:36:08;;;;;;;77.50;48.70;;;;;;;;;;2073803;28;20195;-59
2021/01/11 02:37:09;;;;;;;89.77;49.93;;;;;;;;;;2082916;28;20164;-65
2021/01/11 02:38:09;;;;;;;85.03;49.57;;;;;;;;;;2083398;28;20413;-63
2021/01/11 02:39:10;;;;;;;71.57;43.30;;;;;;;;;;2082501;28;20187;-64
2021/01/11 02:40:10;;;;;;;87.10;49.33;;;;;;;;;;2081695;28;20200;-64
2021/01/11 02:41:11;;;;;;;82.40;49.40;;;;;;;;;;2082359;28;20176;-64
2021/01/11 02:42:11;;;;;;;69.20;41.53;;;;;;;;;;2080754;28;20180;-63
2021/01/11 02:43:12;;;;;;;75.80;48.07;;;;;;;;;;2073249;28;20221;-61
2021/01/11 02:44:12;;;;;;;82.77;49.87;;;;;;;;;;2082344;28;20176;-64
2021/01/11 02:45:12;;;;;;;83.77;50.33;;;;;;;;;;2090198;28;20245;-65
2021/01/11 02:46:13;;;;;;;79.27;44.90;;;;;;;;;;2073273;28;20192;-65
2021/01/11 02:47:13;;;;;;;77.83;48.93;;;;;;;;;;2072714;28;20196;-63
2021/01/11 02:48:17;;;;;;;80.30;47.90;;;;;;;;;;2089959;28;20182;-63
2021/01/11 02:49:24;;;;;;;77.00;45.80;;;;;;;;;;2090394;28;20225;-63
2021/01/11 02:50:25;;;;;;;80.60;48.80;;;;;;;;;;2090197;28;20206;-63
2021/01/11 02:51:36;;;;;;;82.10;50.80;;;;;;;;;;2089693;28;20230;-61
2021/01/11 02:52:42;;;;;;;76.00;46.13;;;;;;;;;;2081679;28;20248;-62
2021/01/11 02:53:44;;;;;;;80.60;47.10;;;;;;;;;;2082234;28;20234;-63
2021/01/11 02:55:03;;;;;;;78.53;47.00;;;;;;;;;;2080684;28;20249;-65
2021/01/11 02:56:05;;;;;;;68.47;37.57;;;;;;;;;;2078656;28;20169;-60
2021/01/11 02:57:23;;;;;;;78.17;45.90;;;;;;;;;;2079108;28;20426;-61
2021/01/11 02:58:42;;;;;;;81.43;45.47;;;;;;;;;;2083513;28;20199;-63
2021/01/11 02:59:52;;;;;;;69.67;41.53;;;;;;;;;;2081354;28;20694;-63
2021/01/11 03:00:54;;;;;;;76.37;45.93;;;;;;;;;;2083113;28;20961;-62
2021/01/11 03:01:56;;;;;;;74.00;45.20;;;;;;;;;;2090003;28;20404;-64
2021/01/11 03:02:57;;;;;;;75.93;48.57;;;;;;;;;;2081236;28;20547;-63
2021/01/11 03:03:59;;;;;;;76.50;46.87;;;;;;;;;;2081588;28;20429;-66
2021/01/11 03:04:59;;;;;;;79.60;50.13;;;;;;;;;;2081400;28;20425;-66
2021/01/11 03:06:00;;;;;;;75.57;48.93;;;;;;;;;;2080570;28;20213;-61
2021/01/11 03:07:01;;;;;;;82.67;46.33;;;;;;;;;;2080187;28;20176;-65
2021/01/11 03:08:02;;;;;;;73.30;45.13;;;;;;;;;;2089621;28;20181;-66
2021/01/11 03:09:03;;;;;;;66.67;40.27;;;;;;;;;;2087455;28;20432;-62
2021/01/11 03:10:04;;;;;;;81.73;49.37;;;;;;;;;;2081960;28;20173;-64
2021/01/11 03:11:04;;;;;;;76.80;48.23;;;;;;;;;;2082185;28;20398;-66
2021/01/11 03:12:04;;;;;;;73.57;46.73;;;;;;;;;;2090019;28;20650;-64
2021/01/11 03:13:05;;;;;;;79.33;47.07;;;;;;;;;;2090413;28;20171;-63
2021/01/11 03:14:05;;;;;;;76.10;45.83;;;;;;;;;;2080759;28;20237;-63
2021/01/11 03:15:05;;;;;;;77.50;47.10;;;;;;;;;;2081000;28;20228;-62
2021/01/11 03:16:06;;;;;;;78.97;49.33;;;;;;;;;;2089700;28;20179;-63
2021/01/11 03:17:06;;;;;;;81.67;47.93;;;;;;;;;;2079727;28;20180;-67
2021/01/11 03:18:06;;;;;;;74.47;49.03;;;;;;;;;;2072737;28;20632;-63
2021/01/11 03:19:07;;;;;;;81.77;50.97;;;;;;;;;;2081154;28;20207;-64
2021/01/11 03:20:08;;;;;;;76.63;48.53;;;;;;;;;;2080436;28;20180;-63
2021/01/11 03:21:08;;;;;;;79.93;49.80;;;;;;;;;;2073292;28;20610;-63
2021/01/11 03:22:08;;;;;;;85.30;49.70;;;;;;;;;;2084441;28;20428;-59
2021/01/11 03:23:09;;;;;;;82.57;50.77;;;;;;;;;;2086302;28;20177;-61
2021/01/11 03:24:09;;;;;;;76.17;48.10;;;;;;;;;;2077335;28;20290;-65
2021/01/11 03:25:10;;;;;;;81.73;50.47;;;;;;;;;;2072832;28;20787;-66
2021/01/11 03:26:10;;;;;;;76.17;43.07;;;;;;;;;;2079149;28;20176;-69
2021/01/11 03:27:10;;;;;;;84.73;50.47;;;;;;;;;;2072921;28;20539;-67
2021/01/11 03:28:10;;;;;;;87.93;52.93;;;;;;;;;;2064977;28;20736;-68
2021/01/11 03:29:11;;;;;;;80.93;49.40;;;;;;;;;;2074293;28;20184;-68
2021/01/11 03:30:12;;;;;;;81.63;52.03;;;;;;;;;;2069870;28;20713;-67
2021/01/11 03:31:12;;;;;;;84.87;49.10;;;;;;;;;;2074380;28;20169;-69
2021/01/11 03:32:12;;;;;;;84.37;52.00;;;;;;;;;;2077084;28;20176;-66
2021/01/11 03:33:12;;;;;;;84.77;53.03;;;;;;;;;;2082729;28;20941;-65
2021/01/11 03:34:13;;;;;;;79.57;48.50;;;;;;;;;;2092291;28;20179;-67
2021/01/11 03:35:13;;;;;;;87.53;51.43;;;;;;;;;;2088625;28;20176;-67
2021/01/11 03:36:13;;;;;;;83.70;51.90;;;;;;;;;;2076846;28;20173;-67
2021/01/11 03:37:14;;;;;;;82.63;50.17;;;;;;;;;;2082802;28;20196;-70
2021/01/11 03:38:14;;;;;;;83.00;50.00;;;;;;;;;;2090216;28;20176;-67
2021/01/11 03:39:15;;;;;;;72.57;43.63;;;;;;;;;;2090198;28;20256;-68
2021/01/11 03:40:15;;;;;;;79.77;50.67;;;;;;;;;;2091054;28;20223;-68
2021/01/11 03:41:15;;;;;;;76.73;47.80;;;;;;;;;;2080406;28;20539;-68
2021/01/11 03:42:16;;;;;;;87.03;50.07;;;;;;;;;;2070303;28;20608;-68
2021/01/11 03:43:16;;;;;;;81.27;50.83;;;;;;;;;;2078423;28;20177;-67
2021/01/11 03:44:16;;;;;;;83.97;48.90;;;;;;;;;;2083375;28;20228;-68
2021/01/11 03:45:16;;;;;;;77.73;51.63;;;;;;;;;;2080360;28;20215;-67
2021/01/11 03:46:17;;;;;;;82.73;52.13;;;;;;;;;;2083365;28;20168;-68
2021/01/11 03:47:19;;;;;;;69.80;42.47;;;;;;;;;;2066265;28;20221;-68
2021/01/11 03:48:20;;;;;;;82.43;50.73;;;;;;;;;;2073240;28;20169;-69
2021/01/11 03:49:20;;;;;;;80.67;49.53;;;;;;;;;;2072580;28;20506;-68
2021/01/11 03:50:21;;;;;;;84.37;52.00;;;;;;;;;;2072841;28;20315;-68
2021/01/11 03:51:21;;;;;;;76.10;45.57;;;;;;;;;;2086813;28;20160;-68
2021/01/11 03:52:22;;;;;;;93.33;52.73;;;;;;;;;;2089601;28;20180;-68
2021/01/11 03:53:22;;;;;;;88.30;53.40;;;;;;;;;;2081109;28;20168;-68
2021/01/11 03:54:22;;;;;;;84.47;51.53;;;;;;;;;;2077873;28;20172;-68
2021/01/11 03:55:22;;;;;;;79.67;50.63;;;;;;;;;;2088877;28;20266;-68
2021/01/11 03:56:23;;;;;;;73.70;41.53;;;;;;;;;;2091526;28;20167;-68
2021/01/11 03:57:23;;;;;;;86.27;51.87;;;;;;;;;;2082125;28;20212;-67
2021/01/11 03:58:23;;;;;;;78.77;48.60;;;;;;;;;;2074192;28;20181;-67
2021/01/11 03:59:24;;;;;;;82.30;50.83;;;;;;;;;;2074776;28;20185;-68
2021/01/11 04:00:24;;;;;;;84.03;51.53;;;;;;;;;;2075161;28;20189;-68
2021/01/11 04:01:27;;;;;;;84.77;51.20;;;;;;;;;;2075159;28;20220;-67
2021/01/11 04:02:27;;;;;;;81.37;49.67;;;;;;;;;;2081521;28;20202;-67
2021/01/11 04:03:28;;;;;;;77.40;48.17;;;;;;;;;;2082914;28;20421;-67
2021/01/11 04:04:28;;;;;;;82.30;49.33;;;;;;;;;;2083205;28;20623;-67
2021/01/11 04:05:28;;;;;;;84.47;48.80;;;;;;;;;;2083015;28;20212;-67
2021/01/11 04:06:28;;;;;;;71.40;40.97;;;;;;;;;;2083215;28;20216;-68
2021/01/11 04:07:29;;;;;;;80.37;49.70;;;;;;;;;;2074232;28;20276;-68
2021/01/11 04:08:29;;;;;;;79.83;52.07;;;;;;;;;;2083162;28;20262;-69
2021/01/11 04:09:29;;;;;;;77.97;48.43;;;;;;;;;;2082918;28;20180;-68
2021/01/11 04:10:30;;;;;;;89.70;53.30;;;;;;;;;;2083296;28;20228;-69
2021/01/11 04:11:30;;;;;;;86.27;49.83;;;;;;;;;;2091340;28;20209;-66
2021/01/11 04:12:30;;;;;;;82.67;50.73;;;;;;;;;;2083477;28;20191;-67
2021/01/11 04:13:30;;;;;;;85.80;52.53;;;;;;;;;;2083164;28;20219;-67
2021/01/11 04:14:31;;;;;;;79.37;50.43;;;;;;;;;;2082654;28;20156;-67
2021/01/11 04:15:31;;;;;;;77.13;49.03;;;;;;;;;;2083023;28;20192;-67
2021/01/11 04:16:31;;;;;;;81.20;49.67;;;;;;;;;;2083084;28;20255;-67
2021/01/11 04:17:31;;;;;;;79.00;48.93;;;;;;;;;;2081897;28;20200;-68
2021/01/11 04:18:32;;;;;;;80.60;48.30;;;;;;;;;;2082825;28;20633;-67
2021/01/11 04:19:32;;;;;;;82.93;52.03;;;;;;;;;;2083135;28;20184;-69
2021/01/11 04:20:32;;;;;;;77.23;44.80;;;;;;;;;;2083382;28;20172;-68
2021/01/11 04:21:32;;;;;;;77.53;48.00;;;;;;;;;;2082950;28;20180;-67
2021/01/11 04:22:33;;;;;;;80.67;49.90;;;;;;;;;;2082987;28;20177;-67
2021/01/11 04:23:33;;;;;;;81.07;49.17;;;;;;;;;;2091190;28;20175;-68
2021/01/11 04:24:33;;;;;;;87.30;52.67;;;;;;;;;;2091690;28;20233;-68
2021/01/11 04:25:33;;;;;;;80.10;46.73;;;;;;;;;;2091592;28;20567;-68
2021/01/11 04:26:34;;;;;;;76.73;48.90;;;;;;;;;;2082809;28;20317;-68
2021/01/11 04:27:34;;;;;;;76.03;43.00;;;;;;;;;;2082048;28;20635;-67
2021/01/11 04:28:34;;;;;;;77.37;44.43;;;;;;;;;;2074097;28;20165;-69
2021/01/11 04:29:35;;;;;;;85.10;52.07;;;;;;;;;;2083103;28;20164;-69
2021/01/11 04:30:35;;;;;;;89.03;51.00;;;;;;;;;;2083132;28;20668;-68
2021/01/11 04:31:35;;;;;;;85.30;52.20;;;;;;;;;;2083192;28;20160;-69
2021/01/11 04:32:35;;;;;;;86.33;51.17;;;;;;;;;;2082946;28;20195;-67
2021/01/11 04:33:36;;;;;;;84.57;52.03;;;;;;;;;;2083074;28;20172;-67
2021/01/11 04:34:36;;;;;;;92.63;52.43;;;;;;;;;;2083040;28;20172;-67
2021/01/11 04:35:36;;;;;;;91.77;52.83;;;;;;;;;;2092649;28;20187;-67
2021/01/11 04:36:36;;;;;;;97.43;53.80;;;;;;;;;;2083083;28;20204;-67
2021/01/11 04:37:37;;;;;;;91.73;53.33;;;;;;;;;;2082716;28;20224;-68
2021/01/11 04:38:37;;;;;;;88.70;52.43;;;;;;;;;;2092390;28;20255;-67
2021/01/11 04:39:38;;;;;;;89.27;53.90;;;;;;;;;;2083479;28;20168;-68
2021/01/11 04:40:38;;;;;;;88.87;52.67;;;;;;;;;;2075868;28;20200;-68
2021/01/11 04:41:40;;;;;;;90.73;52.50;;;;;;;;;;2083052;28;20649;-68
2021/01/11 04:42:44;;;;;;;67.63;39.10;;;;;;;;;;2092044;28;20604;-68
2021/01/11 04:43:47;;;;;;;86.53;48.63;;;;;;;;;;2082106;28;20426;-67
2021/01/11 04:44:47;;;;;;;93.13;53.97;;;;;;;;;;2083364;28;20413;-67
2021/01/11 04:45:47;;;;;;;85.27;54.23;;;;;;;;;;2084320;28;20452;-63
2021/01/11 04:46:49;;;;;;;97.20;53.50;;;;;;;;;;2084093;28;20251;-68
2021/01/11 04:47:53;;;;;;;87.70;51.10;;;;;;;;;;2091044;28;20222;-66
2021/01/11 04:48:54;;;;;;;96.27;53.07;;;;;;;;;;2091785;28;20739;-68
2021/01/11 04:49:54;;;;;;;101.53;54.63;;;;;;;;;;2092193;28;20213;-68
2021/01/11 04:50:54;;;;;;;97.87;56.73;;;;;;;;;;2074927;28;20212;-66
2021/01/11 04:51:55;;;;;;;97.57;57.43;;;;;;;;;;2067251;28;20190;-68
2021/01/11 04:52:55;;;;;;;96.43;54.63;;;;;;;;;;2083135;28;20689;-67
2021/01/11 04:53:58;;;;;;;63.57;33.77;;;;;;;;;;2083462;28;20180;-68
2021/01/11 04:55:02;;;;;;;103.63;57.50;;;;;;;;;;2066367;28;20181;-66
2021/01/11 04:56:03;;;;;;;101.77;53.83;;;;;;;;;;2071079;28;20559;-68
2021/01/11 04:57:05;;;;;;;99.17;53.20;;;;;;;;;;2085278;28;20431;-69
2021/01/11 04:58:06;;;;;;;101.07;56.97;;;;;;;;;;2077456;28;20700;-68
2021/01/11 04:59:07;;;;;;;102.83;53.83;;;;;;;;;;2082739;28;20416;-68
2021/01/11 05:00:09;;;;;;;108.93;56.13;;;;;;;;;;2082575;28;20416;-68
2021/01/11 05:01:13;;;;;;;103.97;59.10;;;;;;;;;;2080191;28;20931;-67
2021/01/11 05:02:19;;;;;;;117.47;58.33;;;;;;;;;;2075552;28;20524;-66
2021/01/11 05:03:19;;;;;;;114.97;58.40;;;;;;;;;;2079343;28;20432;-66
2021/01/11 05:04:19;;;;;;;116.07;60.33;;;;;;;;;;2089465;28;20421;-66
2021/01/11 05:05:21;;;;;;;116.00;60.93;;;;;;;;;;2085254;28;20751;-66
2021/01/11 05:06:22;;;;;;;115.30;60.37;;;;;;;;;;2088137;28;20221;-66
2021/01/11 05:07:22;;;;;;;109.87;59.97;;;;;;;;;;2085059;28;20948;-66
2021/01/11 05:08:23;;;;;;;119.50;62.87;;;;;;;;;;2089488;28;20192;-67
2021/01/11 05:09:23;;;;;;;109.77;59.20;;;;;;;;;;2082933;28;20569;-67
2021/01/11 05:10:25;;;;;;;72.93;38.80;;;;;;;;;;2073950;28;20180;-63
2021/01/11 05:11:25;;;;;;;110.00;57.17;;;;;;;;;;2082905;28;20637;-66
2021/01/11 05:12:25;;;;;;;107.33;56.03;;;;;;;;;;2091075;28;20401;-66
2021/01/11 05:13:27;;;;;;;91.83;47.07;;;;;;;;;;2091593;28;20179;-66
2021/01/11 05:14:27;;;;;;;113.07;56.03;;;;;;;;;;2090639;28;20167;-67
2021/01/11 05:15:29;;;;;;;111.37;56.07;;;;;;;;;;2085570;28;20468;-67
2021/01/11 05:16:29;;;;;;;110.43;57.17;;;;;;;;;;2075688;28;20178;-66
2021/01/11 05:17:29;;;;;;;98.23;54.07;;;;;;;;;;2077116;28;20441;-67
2021/01/11 05:18:31;;;;;;;103.60;55.47;;;;;;;;;;2086963;28;20207;-67
2021/01/11 05:19:32;;;;;;;104.20;50.80;;;;;;;;;;2083985;28;20179;-66
2021/01/11 05:20:33;;;;;;;109.43;58.30;;;;;;;;;;2078776;28;20422;-66
2021/01/11 05:21:40;;;;;;;105.83;56.73;;;;;;;;;;2092551;28;20178;-66
2021/01/11 05:22:46;;;;;;;111.33;59.83;;;;;;;;;;2093193;28;20278;-67
2021/01/11 05:23:47;;;;;;;85.97;42.47;;;;;;;;;;2076735;28;20509;-67
2021/01/11 05:24:48;;;;;;;111.60;55.07;;;;;;;;;;2080611;28;20428;-67
2021/01/11 05:25:48;;;;;;;98.77;53.30;;;;;;;;;;2086569;28;20247;-64
2021/01/11 05:26:49;;;;;;;77.53;41.70;;;;;;;;;;2088559;28;20525;-66
2021/01/11 05:28:02;;;;;;;92.87;49.03;;;;;;;;;;2082162;28;20407;-65
2021/01/11 05:29:18;;;;;;;60.10;30.77;;;;;;;;;;2084368;28;20510;-64
2021/01/11 05:30:21;;;;;;;89.67;46.70;;;;;;;;;;2089832;28;20457;-66
2021/01/11 05:31:21;;;;;;;84.83;47.10;;;;;;;;;;2084748;28;20417;-66
2021/01/11 05:32:24;;;;;;;98.23;50.80;;;;;;;;;;2079806;28;20420;-66
2021/01/11 05:33:25;;;;;;;88.03;44.37;;;;;;;;;;2082119;28;20690;-66
2021/01/11 05:34:45;;;;;;;100.87;51.20;;;;;;;;;;2088753;28;20869;-66
2021/01/11 05:35:45;;;;;;;85.50;46.57;;;;;;;;;;2082917;28;20550;-66
2021/01/11 05:36:46;;;;;;;87.43;46.07;;;;;;;;;;2089428;28;20397;-66
2021/01/11 05:37:47;;;;;;;92.23;44.33;;;;;;;;;;2082460;28;20196;-66
2021/01/11 05:38:47;;;;;;;91.33;48.77;;;;;;;;;;2074767;28;20787;-66
2021/01/11 05:40:00;;;;;;;84.70;42.07;;;;;;;;;;2070510;28;20196;-63
2021/01/11 05:41:14;;;;;;;73.77;35.77;;;;;;;;;;2072061;28;20673;-64
2021/01/11 05:42:21;;;;;;;80.97;35.73;;;;;;;;;;2071118;28;20430;-66
2021/01/11 05:43:22;;;;;;;85.83;40.60;;;;;;;;;;2070482;28;20410;-66
2021/01/11 05:44:22;;;;;;;84.47;43.33;;;;;;;;;;2073138;28;20871;-66
2021/01/11 05:45:24;;;;;;;85.93;42.20;;;;;;;;;;2081041;28;20199;-65
2021/01/11 05:46:28;;;;;;;95.37;45.90;;;;;;;;;;2073546;28;20169;-66
2021/01/11 05:47:28;;;;;;;57.83;26.50;;;;;;;;;;2073406;28;20544;-66
2021/01/11 05:48:28;;;;;;;90.47;47.63;;;;;;;;;;2081593;28;20429;-64
2021/01/11 05:49:28;;;;;;;106.70;46.90;;;;;;;;;;2078434;28;20176;-62
2021/01/11 05:50:49;;;;;;;100.60;47.00;;;;;;;;;;2081731;28;20262;-66
2021/01/11 05:51:49;;;;;;;88.70;36.70;;;;;;;;;;2078485;28;20256;-66
2021/01/11 05:52:49;;;;;;;79.07;38.27;;;;;;;;;;2073751;28;20527;-66
2021/01/11 05:53:50;;;;;;;93.10;45.77;;;;;;;;;;2088672;28;20183;-65
2021/01/11 05:54:50;;;;;;;97.67;46.30;;;;;;;;;;2089328;28;20168;-65
2021/01/11 05:55:51;;;;;;;82.73;37.43;;;;;;;;;;2086752;28;20282;-66
2021/01/11 05:56:52;;;;;;;94.10;43.60;;;;;;;;;;2083565;28;20194;-66
2021/01/11 05:57:53;;;;;;;102.70;50.53;;;;;;;;;;2089531;28;20460;-66
2021/01/11 05:59:04;;;;;;;97.83;47.63;;;;;;;;;;2079520;28;20733;-59
2021/01/11 06:00:04;;;;;;;97.53;45.97;;;;;;;;;;2075149;28;20463;-65